createdAt,value
2023-04-23T00:00:56.437Z,989.9
2023-04-23T00:01:57.607Z,989.9
2023-04-23T00:02:58.878Z,989.9
2023-04-23T00:04:00.797Z,989.9
2023-04-23T00:05:02.772Z,989.9
2023-04-23T00:06:04.270Z,989.9
2023-04-23T00:07:05.487Z,989.9
2023-04-23T00:08:06.606Z,989.8
2023-04-23T00:09:07.784Z,989.8
2023-04-23T00:10:08.935Z,989.8
2023-04-23T00:11:10.155Z,989.8
2023-04-23T00:12:11.334Z,989.8
2023-04-23T00:13:12.498Z,989.8
2023-04-23T00:14:13.669Z,989.8
2023-04-23T00:15:14.835Z,989.8
2023-04-23T00:16:16.019Z,989.8
2023-04-23T00:17:17.169Z,989.8
2023-04-23T00:18:18.333Z,989.8
2023-04-23T00:19:19.740Z,989.8
2023-04-23T00:20:20.909Z,989.8
2023-04-23T00:21:22.082Z,989.8
2023-04-23T00:22:23.270Z,989.8
2023-04-23T00:23:24.466Z,989.8
2023-04-23T00:24:25.630Z,989.8
2023-04-23T00:25:26.792Z,989.8
2023-04-23T00:26:27.959Z,989.8
2023-04-23T00:27:29.771Z,989.8
2023-04-23T00:28:30.927Z,989.8
2023-04-23T00:29:32.094Z,989.8
2023-04-23T00:30:33.262Z,989.8
2023-04-23T00:31:34.479Z,989.9
2023-04-23T00:32:35.711Z,989.9
2023-04-23T00:33:36.902Z,989.9
2023-04-23T00:34:38.069Z,989.9
2023-04-23T00:35:39.271Z,989.8
2023-04-23T00:36:40.448Z,989.9
2023-04-23T00:37:41.624Z,989.9
2023-04-23T00:38:42.769Z,989.9
2023-04-23T00:39:43.932Z,989.9
2023-04-23T00:40:45.098Z,989.9
2023-04-23T00:41:46.271Z,989.9
2023-04-23T00:42:47.430Z,989.9
2023-04-23T00:43:48.595Z,989.9
2023-04-23T00:44:49.761Z,989.9
2023-04-23T00:45:51.038Z,989.9
2023-04-23T00:46:52.292Z,989.9
2023-04-23T00:47:53.569Z,989.9
2023-04-23T00:48:54.718Z,989.9
2023-04-23T00:49:55.886Z,989.9
2023-04-23T00:50:57.049Z,989.9
2023-04-23T00:51:58.220Z,989.9
2023-04-23T00:52:59.433Z,989.9
2023-04-23T00:54:00.673Z,989.9
2023-04-23T00:55:01.852Z,989.9
2023-04-23T00:56:03.024Z,989.8
2023-04-23T00:57:04.231Z,989.9
2023-04-23T00:58:05.368Z,989.9
2023-04-23T00:59:06.538Z,989.9
2023-04-23T01:00:07.711Z,989.9
2023-04-23T01:01:09.012Z,989.9
2023-04-23T01:02:10.327Z,989.9
2023-04-23T01:03:12.245Z,989.9
2023-04-23T01:04:13.618Z,989.9
2023-04-23T01:05:14.955Z,989.9
2023-04-23T01:06:16.126Z,989.9
2023-04-23T01:07:17.374Z,989.9
2023-04-23T01:08:18.566Z,989.8
2023-04-23T01:09:19.702Z,989.8
2023-04-23T01:10:20.873Z,989.8
2023-04-23T01:11:22.032Z,989.8
2023-04-23T01:12:23.195Z,989.8
2023-04-23T01:13:24.360Z,989.8
2023-04-23T01:14:25.546Z,989.8
2023-04-23T01:15:26.715Z,989.8
2023-04-23T01:16:27.891Z,989.8
2023-04-23T01:17:29.054Z,989.8
2023-04-23T01:18:30.286Z,989.8
2023-04-23T01:19:31.454Z,989.9
2023-04-23T01:20:32.627Z,989.8
2023-04-23T01:21:33.792Z,989.8
2023-04-23T01:22:34.976Z,989.8
2023-04-23T01:23:36.204Z,989.8
2023-04-23T01:24:37.326Z,989.8
2023-04-23T01:25:38.533Z,989.8
2023-04-23T01:26:39.707Z,989.8
2023-04-23T01:27:40.863Z,989.8
2023-04-23T01:28:42.029Z,989.9
2023-04-23T01:29:43.196Z,989.9
2023-04-23T01:30:44.501Z,989.9
2023-04-23T01:31:45.703Z,989.8
2023-04-23T01:32:46.906Z,989.8
2023-04-23T01:33:48.053Z,989.8
2023-04-23T01:34:49.223Z,989.8
2023-04-23T01:35:50.388Z,989.8
2023-04-23T01:36:51.553Z,989.8
2023-04-23T01:37:52.768Z,989.9
2023-04-23T01:38:54.189Z,989.9
2023-04-23T01:39:55.327Z,989.9
2023-04-23T01:40:56.492Z,989.8
2023-04-23T01:41:57.657Z,989.8
2023-04-23T01:42:58.823Z,989.8
2023-04-23T01:43:59.987Z,989.8
2023-04-23T01:45:01.154Z,989.8
2023-04-23T01:46:02.345Z,989.8
2023-04-23T01:47:06.915Z,989.8
2023-04-23T01:48:08.270Z,989.8
2023-04-23T01:49:09.435Z,989.8
2023-04-23T01:50:10.591Z,989.8
2023-04-23T01:51:11.764Z,989.8
2023-04-23T01:52:12.926Z,989.8
2023-04-23T01:53:14.094Z,989.8
2023-04-23T01:54:15.279Z,989.8
2023-04-23T01:55:16.426Z,989.8
2023-04-23T01:56:17.594Z,989.8
2023-04-23T01:57:18.755Z,989.8
2023-04-23T01:58:19.925Z,989.8
2023-04-23T01:59:21.088Z,989.8
2023-04-23T02:00:22.248Z,989.8
2023-04-23T02:01:23.513Z,989.8
2023-04-23T02:02:24.718Z,989.8
2023-04-23T02:03:26.184Z,989.8
2023-04-23T02:04:27.982Z,989.8
2023-04-23T02:05:29.363Z,989.8
2023-04-23T02:06:30.518Z,989.8
2023-04-23T02:07:31.690Z,989.8
2023-04-23T02:08:32.848Z,989.8
2023-04-23T02:09:34.290Z,989.8
2023-04-23T02:10:35.409Z,989.8
2023-04-23T02:11:36.591Z,989.8
2023-04-23T02:12:37.748Z,989.8
2023-04-23T02:13:38.937Z,989.8
2023-04-23T02:14:40.633Z,989.8
2023-04-23T02:15:42.339Z,989.7
2023-04-23T02:16:43.547Z,989.8
2023-04-23T02:17:44.745Z,989.7
2023-04-23T02:18:45.910Z,989.7
2023-04-23T02:19:47.070Z,989.7
2023-04-23T02:20:48.239Z,989.7
2023-04-23T02:21:49.406Z,989.7
2023-04-23T02:22:50.576Z,989.7
2023-04-23T02:23:51.736Z,989.8
2023-04-23T02:24:52.934Z,989.8
2023-04-23T02:25:54.083Z,989.8
2023-04-23T02:26:55.244Z,989.8
2023-04-23T02:27:56.409Z,989.8
2023-04-23T02:28:57.577Z,989.8
2023-04-23T02:29:58.738Z,989.8
2023-04-23T02:30:59.910Z,989.8
2023-04-23T02:32:01.087Z,989.8
2023-04-23T02:33:02.350Z,989.8
2023-04-23T02:34:03.506Z,989.8
2023-04-23T02:35:04.694Z,989.8
2023-04-23T02:36:05.840Z,989.8
2023-04-23T02:37:07.000Z,989.8
2023-04-23T02:38:08.185Z,989.8
2023-04-23T02:39:09.336Z,989.8
2023-04-23T02:40:10.605Z,989.8
2023-04-23T02:41:11.746Z,989.8
2023-04-23T02:42:12.911Z,989.8
2023-04-23T02:43:14.089Z,989.8
2023-04-23T02:44:15.248Z,989.9
2023-04-23T02:45:16.407Z,989.9
2023-04-23T02:46:17.597Z,989.9
2023-04-23T02:47:18.740Z,989.9
2023-04-23T02:48:19.911Z,989.9
2023-04-23T02:49:21.069Z,989.9
2023-04-23T02:50:22.235Z,989.9
2023-04-23T02:51:23.405Z,989.9
2023-04-23T02:52:24.573Z,989.9
2023-04-23T02:53:25.736Z,989.9
2023-04-23T02:54:26.899Z,989.9
2023-04-23T02:55:28.174Z,989.9
2023-04-23T02:56:29.301Z,989.9
2023-04-23T02:57:30.468Z,989.9
2023-04-23T02:58:31.660Z,989.9
2023-04-23T02:59:32.877Z,989.9
2023-04-23T03:00:34.034Z,989.9
2023-04-23T03:01:35.205Z,989.8
2023-04-23T03:02:36.655Z,989.9
2023-04-23T03:03:38.480Z,989.9
2023-04-23T03:04:40.890Z,989.9
2023-04-23T03:05:42.531Z,989.9
2023-04-23T03:06:43.746Z,989.9
2023-04-23T03:07:44.877Z,989.9
2023-04-23T03:08:46.034Z,989.9
2023-04-23T03:09:47.200Z,989.9
2023-04-23T03:10:48.394Z,989.9
2023-04-23T03:11:49.543Z,989.9
2023-04-23T03:12:50.720Z,989.9
2023-04-23T03:13:51.874Z,989.9
2023-04-23T03:14:53.044Z,989.9
2023-04-23T03:15:54.200Z,989.9
2023-04-23T03:16:55.406Z,989.9
2023-04-23T03:17:56.628Z,989.9
2023-04-23T03:18:57.788Z,989.9
2023-04-23T03:19:58.936Z,990
2023-04-23T03:21:00.122Z,990
2023-04-23T03:22:01.269Z,990
2023-04-23T03:23:02.432Z,990
2023-04-23T03:24:03.599Z,990
2023-04-23T03:25:04.766Z,990
2023-04-23T03:26:05.964Z,990
2023-04-23T03:27:07.103Z,990
2023-04-23T03:28:08.268Z,990
2023-04-23T03:29:09.434Z,990
2023-04-23T03:30:10.638Z,990
2023-04-23T03:31:11.845Z,990
2023-04-23T03:32:13.017Z,990
2023-04-23T03:33:14.184Z,989.9
2023-04-23T03:34:15.347Z,989.9
2023-04-23T03:35:16.514Z,989.9
2023-04-23T03:36:17.688Z,989.9
2023-04-23T03:37:18.848Z,989.9
2023-04-23T03:38:20.012Z,989.9
2023-04-23T03:39:21.181Z,989.9
2023-04-23T03:40:22.355Z,989.9
2023-04-23T03:41:23.545Z,989.8
2023-04-23T03:42:24.676Z,989.9
2023-04-23T03:43:25.840Z,989.9
2023-04-23T03:44:27.010Z,989.9
2023-04-23T03:45:28.178Z,989.9
2023-04-23T03:46:29.402Z,989.9
2023-04-23T03:47:30.670Z,989.8
2023-04-23T03:48:31.856Z,989.9
2023-04-23T03:49:33.054Z,989.9
2023-04-23T03:50:34.223Z,989.9
2023-04-23T03:51:35.395Z,989.9
2023-04-23T03:52:36.564Z,989.9
2023-04-23T03:53:37.729Z,989.9
2023-04-23T03:54:39.163Z,989.9
2023-04-23T03:55:40.846Z,989.9
2023-04-23T03:56:42.040Z,989.9
2023-04-23T03:57:43.179Z,989.9
2023-04-23T03:58:44.343Z,989.9
2023-04-23T03:59:45.511Z,989.9
2023-04-23T04:00:46.683Z,989.9
2023-04-23T04:01:47.844Z,989.9
2023-04-23T04:02:49.256Z,989.9
2023-04-23T04:03:50.953Z,989.9
2023-04-23T04:04:53.088Z,989.9
2023-04-23T04:05:54.769Z,989.9
2023-04-23T04:06:56.021Z,989.9
2023-04-23T04:07:57.174Z,990
2023-04-23T04:08:58.336Z,990
2023-04-23T04:09:59.538Z,990
2023-04-23T04:11:00.672Z,990
2023-04-23T04:12:01.869Z,990
2023-04-23T04:13:03.022Z,990
2023-04-23T04:14:04.187Z,990
2023-04-23T04:15:05.351Z,990
2023-04-23T04:16:06.577Z,990
2023-04-23T04:17:07.732Z,990.1
2023-04-23T04:18:08.893Z,990.1
2023-04-23T04:19:10.057Z,990.1
2023-04-23T04:20:11.265Z,990.1
2023-04-23T04:21:12.411Z,990.1
2023-04-23T04:22:13.581Z,990.1
2023-04-23T04:23:14.785Z,990.1
2023-04-23T04:24:15.943Z,990.1
2023-04-23T04:25:17.103Z,990.1
2023-04-23T04:26:18.277Z,990.1
2023-04-23T04:27:19.471Z,990.1
2023-04-23T04:28:20.610Z,990.1
2023-04-23T04:29:21.779Z,990.1
2023-04-23T04:30:22.952Z,990.1
2023-04-23T04:31:24.156Z,990.1
2023-04-23T04:32:25.330Z,990.1
2023-04-23T04:33:26.520Z,990.1
2023-04-23T04:34:27.686Z,990.2
2023-04-23T04:35:28.844Z,990.2
2023-04-23T04:36:30.017Z,990.2
2023-04-23T04:37:31.184Z,990.2
2023-04-23T04:38:32.343Z,990.2
2023-04-23T04:39:33.516Z,990.2
2023-04-23T04:40:34.676Z,990.2
2023-04-23T04:41:35.845Z,990.2
2023-04-23T04:42:37.041Z,990.2
2023-04-23T04:43:38.183Z,990.2
2023-04-23T04:44:39.640Z,990.2
2023-04-23T04:45:41.297Z,990.2
2023-04-23T04:46:42.544Z,990.2
2023-04-23T04:47:43.896Z,990.3
2023-04-23T04:48:45.035Z,990.3
2023-04-23T04:49:46.203Z,990.3
2023-04-23T04:50:47.393Z,990.3
2023-04-23T04:51:48.595Z,990.3
2023-04-23T04:52:49.724Z,990.3
2023-04-23T04:53:50.890Z,990.3
2023-04-23T04:54:52.056Z,990.4
2023-04-23T04:55:53.228Z,990.4
2023-04-23T04:56:54.388Z,990.4
2023-04-23T04:57:55.581Z,990.4
2023-04-23T04:58:56.808Z,990.4
2023-04-23T04:59:57.971Z,990.4
2023-04-23T05:00:59.149Z,990.4
2023-04-23T05:02:00.383Z,990.4
2023-04-23T05:03:01.935Z,990.4
2023-04-23T05:04:04.008Z,990.4
2023-04-23T05:05:05.802Z,990.4
2023-04-23T05:06:06.970Z,990.5
2023-04-23T05:07:08.134Z,990.5
2023-04-23T05:08:09.301Z,990.5
2023-04-23T05:09:10.471Z,990.5
2023-04-23T05:10:11.630Z,990.5
2023-04-23T05:11:12.809Z,990.5
2023-04-23T05:12:14.020Z,990.5
2023-04-23T05:13:15.175Z,990.5
2023-04-23T05:14:16.310Z,990.5
2023-04-23T05:15:17.484Z,990.5
2023-04-23T05:16:18.662Z,990.5
2023-04-23T05:17:19.888Z,990.6
2023-04-23T05:18:21.047Z,990.6
2023-04-23T05:19:22.212Z,990.6
2023-04-23T05:20:23.379Z,990.6
2023-04-23T05:21:24.548Z,990.6
2023-04-23T05:22:25.714Z,990.6
2023-04-23T05:23:26.888Z,990.6
2023-04-23T05:24:28.046Z,990.6
2023-04-23T05:25:29.208Z,990.6
2023-04-23T05:26:30.378Z,990.7
2023-04-23T05:27:31.593Z,990.7
2023-04-23T05:28:32.781Z,990.7
2023-04-23T05:29:33.923Z,990.7
2023-04-23T05:30:35.097Z,990.7
2023-04-23T05:31:36.275Z,990.7
2023-04-23T05:32:37.497Z,990.7
2023-04-23T05:33:50.980Z,990.7
2023-04-23T05:34:52.259Z,990.8
2023-04-23T05:35:53.423Z,990.8
2023-04-23T05:36:54.590Z,990.8
2023-04-23T05:37:55.770Z,990.8
2023-04-23T05:38:56.923Z,990.8
2023-04-23T05:39:58.094Z,990.8
2023-04-23T05:40:59.250Z,990.8
2023-04-23T05:42:00.409Z,990.9
2023-04-23T05:43:01.586Z,990.9
2023-04-23T05:44:02.765Z,990.9
2023-04-23T05:45:03.912Z,990.9
2023-04-23T05:46:05.898Z,990.9
2023-04-23T05:47:07.064Z,990.9
2023-04-23T05:48:08.231Z,990.9
2023-04-23T05:49:09.392Z,990.9
2023-04-23T05:50:10.559Z,991
2023-04-23T05:51:11.726Z,991
2023-04-23T05:52:12.891Z,991
2023-04-23T05:53:14.060Z,991
2023-04-23T05:54:15.221Z,991
2023-04-23T05:55:16.392Z,991
2023-04-23T05:56:17.554Z,991
2023-04-23T05:57:18.725Z,991
2023-04-23T05:58:19.907Z,991
2023-04-23T05:59:21.095Z,991
2023-04-23T06:00:22.220Z,991
2023-04-23T06:01:23.387Z,991
2023-04-23T06:02:25.815Z,991.1
2023-04-23T06:03:27.757Z,991
2023-04-23T06:04:29.977Z,991
2023-04-23T06:05:31.922Z,991
2023-04-23T06:06:33.386Z,991
2023-04-23T06:07:34.550Z,991.1
2023-04-23T06:08:35.719Z,991.1
2023-04-23T06:09:36.889Z,991.1
2023-04-23T06:10:38.058Z,991.1
2023-04-23T06:11:39.223Z,991.1
2023-04-23T06:12:40.387Z,991.1
2023-04-23T06:13:44.204Z,991.1
2023-04-23T06:14:45.421Z,991.1
2023-04-23T06:15:46.652Z,991.1
2023-04-23T06:16:47.834Z,991.1
2023-04-23T06:17:49.036Z,991.1
2023-04-23T06:18:50.171Z,991.1
2023-04-23T06:19:51.346Z,991.1
2023-04-23T06:20:52.512Z,991.1
2023-04-23T06:21:53.672Z,991.2
2023-04-23T06:22:54.838Z,991.2
2023-04-23T06:23:56.004Z,991.2
2023-04-23T06:24:57.169Z,991.2
2023-04-23T06:25:58.332Z,991.2
2023-04-23T06:26:59.500Z,991.2
2023-04-23T06:28:00.668Z,991.2
2023-04-23T06:29:01.836Z,991.2
2023-04-23T06:30:03.042Z,991.2
2023-04-23T06:31:04.260Z,991.2
2023-04-23T06:32:05.411Z,991.1
2023-04-23T06:33:06.628Z,991.1
2023-04-23T06:34:07.765Z,991.1
2023-04-23T06:35:09.578Z,991.2
2023-04-23T06:36:10.738Z,991.2
2023-04-23T06:37:11.930Z,991.2
2023-04-23T06:38:13.099Z,991.2
2023-04-23T06:39:14.259Z,991.2
2023-04-23T06:40:15.428Z,991.2
2023-04-23T06:41:16.590Z,991.2
2023-04-23T06:42:17.758Z,991.2
2023-04-23T06:43:18.926Z,991.2
2023-04-23T06:44:20.114Z,991.2
2023-04-23T06:45:21.356Z,991.2
2023-04-23T06:46:22.554Z,991.2
2023-04-23T06:47:23.717Z,991.2
2023-04-23T06:48:24.883Z,991.3
2023-04-23T06:49:26.040Z,991.3
2023-04-23T06:50:27.271Z,991.3
2023-04-23T06:51:28.417Z,991.3
2023-04-23T06:52:29.578Z,991.3
2023-04-23T06:53:30.742Z,991.3
2023-04-23T06:54:31.910Z,991.3
2023-04-23T06:55:33.075Z,991.2
2023-04-23T06:56:34.242Z,991.2
2023-04-23T06:57:36.064Z,991.3
2023-04-23T06:58:37.231Z,991.3
2023-04-23T06:59:38.403Z,991.2
2023-04-23T07:00:39.650Z,991.2
2023-04-23T07:01:40.835Z,991.2
2023-04-23T07:02:42.222Z,991.2
2023-04-23T07:03:45.664Z,991.2
2023-04-23T07:04:47.697Z,991.2
2023-04-23T07:05:49.168Z,991.2
2023-04-23T07:06:50.335Z,991.2
2023-04-23T07:07:51.507Z,991.2
2023-04-23T07:08:52.683Z,991.3
2023-04-23T07:09:53.835Z,991.3
2023-04-23T07:10:55.001Z,991.3
2023-04-23T07:11:56.657Z,991.3
2023-04-23T07:12:57.822Z,991.3
2023-04-23T07:13:58.982Z,991.3
2023-04-23T07:15:00.189Z,991.3
2023-04-23T07:16:01.387Z,991.3
2023-04-23T07:17:02.746Z,991.3
2023-04-23T07:18:04.030Z,991.3
2023-04-23T07:19:05.192Z,991.3
2023-04-23T07:20:06.370Z,991.3
2023-04-23T07:21:07.696Z,991.3
2023-04-23T07:22:08.862Z,991.3
2023-04-23T07:23:10.023Z,991.3
2023-04-23T07:24:11.189Z,991.3
2023-04-23T07:25:12.363Z,991.3
2023-04-23T07:26:13.524Z,991.3
2023-04-23T07:27:14.692Z,991.3
2023-04-23T07:28:15.856Z,991.3
2023-04-23T07:29:17.026Z,991.3
2023-04-23T07:30:18.192Z,991.3
2023-04-23T07:31:19.378Z,991.3
2023-04-23T07:32:20.595Z,991.3
2023-04-23T07:33:21.749Z,991.3
2023-04-23T07:34:23.298Z,991.3
2023-04-23T07:35:24.469Z,991.3
2023-04-23T07:36:25.638Z,991.3
2023-04-23T07:37:26.798Z,991.3
2023-04-23T07:38:30.035Z,991.3
2023-04-23T07:39:31.184Z,991.3
2023-04-23T07:40:32.361Z,991.3
2023-04-23T07:41:33.520Z,991.3
2023-04-23T07:42:34.683Z,991.3
2023-04-23T07:43:35.845Z,991.3
2023-04-23T07:44:37.009Z,991.3
2023-04-23T07:45:38.265Z,991.3
2023-04-23T07:46:39.477Z,991.3
2023-04-23T07:47:40.645Z,991.3
2023-04-23T07:48:41.794Z,991.3
2023-04-23T07:49:43.714Z,991.3
2023-04-23T07:50:45.584Z,991.3
2023-04-23T07:51:46.752Z,991.4
2023-04-23T07:52:47.926Z,991.4
2023-04-23T07:53:49.088Z,991.4
2023-04-23T07:54:50.255Z,991.3
2023-04-23T07:55:51.416Z,991.3
2023-04-23T07:56:52.581Z,991.4
2023-04-23T07:57:53.744Z,991.4
2023-04-23T07:58:54.916Z,991.4
2023-04-23T07:59:56.080Z,991.3
2023-04-23T08:00:57.255Z,991.4
2023-04-23T08:01:58.452Z,991.3
2023-04-23T08:02:59.962Z,991.4
2023-04-23T08:04:01.810Z,991.3
2023-04-23T08:05:03.838Z,991.3
2023-04-23T08:06:05.250Z,991.4
2023-04-23T08:07:06.425Z,991.4
2023-04-23T08:08:07.583Z,991.4
2023-04-23T08:09:08.747Z,991.4
2023-04-23T08:10:09.915Z,991.4
2023-04-23T08:11:11.087Z,991.5
2023-04-23T08:12:12.243Z,991.4
2023-04-23T08:13:13.411Z,991.4
2023-04-23T08:14:14.598Z,991.4
2023-04-23T08:15:15.744Z,991.4
2023-04-23T08:16:16.952Z,991.5
2023-04-23T08:17:18.146Z,991.3
2023-04-23T08:18:19.290Z,991.4
2023-04-23T08:19:20.453Z,991.4
2023-04-23T08:20:21.644Z,991.5
2023-04-23T08:21:22.797Z,991.4
2023-04-23T08:22:23.956Z,991.4
2023-04-23T08:23:25.144Z,991.4
2023-04-23T08:24:26.359Z,991.4
2023-04-23T08:25:27.489Z,991.4
2023-04-23T08:26:28.691Z,991.3
2023-04-23T08:27:29.859Z,991.2
2023-04-23T08:28:31.112Z,991.2
2023-04-23T08:29:32.234Z,991.3
2023-04-23T08:30:33.404Z,991.3
2023-04-23T08:31:34.595Z,991.3
2023-04-23T08:32:35.888Z,991.3
2023-04-23T08:33:37.096Z,991.3
2023-04-23T08:34:38.259Z,991.3
2023-04-23T08:35:39.423Z,991.3
2023-04-23T08:36:40.670Z,991.3
2023-04-23T08:37:41.835Z,991.3
2023-04-23T08:38:43.005Z,991.3
2023-04-23T08:39:44.781Z,991.3
2023-04-23T08:40:46.822Z,991.3
2023-04-23T08:41:47.988Z,991.3
2023-04-23T08:42:49.215Z,991.3
2023-04-23T08:43:50.375Z,991.3
2023-04-23T08:44:51.560Z,991.3
2023-04-23T08:45:52.722Z,991.3
2023-04-23T08:46:53.946Z,991.3
2023-04-23T08:47:55.236Z,991.3
2023-04-23T08:48:56.430Z,991.2
2023-04-23T08:49:57.592Z,991.3
2023-04-23T08:50:58.765Z,991.3
2023-04-23T08:51:59.928Z,991.3
2023-04-23T08:53:01.107Z,991.3
2023-04-23T08:54:02.254Z,991.3
2023-04-23T08:55:03.425Z,991.2
2023-04-23T08:56:04.586Z,991.3
2023-04-23T08:57:05.755Z,991.2
2023-04-23T08:58:06.922Z,991.3
2023-04-23T08:59:08.098Z,991.3
2023-04-23T09:00:09.255Z,991.3
2023-04-23T09:01:10.462Z,991.3
2023-04-23T09:02:11.836Z,991.3
2023-04-23T09:03:13.502Z,991.2
2023-04-23T09:04:14.981Z,991.2
2023-04-23T09:05:16.148Z,991.2
2023-04-23T09:06:17.306Z,991.2
2023-04-23T09:07:18.479Z,991.2
2023-04-23T09:08:19.645Z,991.2
2023-04-23T09:09:20.809Z,991.2
2023-04-23T09:10:22.028Z,991.2
2023-04-23T09:11:23.210Z,991.2
2023-04-23T09:12:24.379Z,991.2
2023-04-23T09:13:25.559Z,991.2
2023-04-23T09:14:26.735Z,991.2
2023-04-23T09:15:27.917Z,991.2
2023-04-23T09:16:29.079Z,991.2
2023-04-23T09:17:30.287Z,991.2
2023-04-23T09:18:31.510Z,991.1
2023-04-23T09:19:32.663Z,991.1
2023-04-23T09:20:33.819Z,991.1
2023-04-23T09:21:34.988Z,991.1
2023-04-23T09:22:36.150Z,991.1
2023-04-23T09:23:37.312Z,991.1
2023-04-23T09:24:38.503Z,991.1
2023-04-23T09:25:39.670Z,991.1
2023-04-23T09:26:40.839Z,991.2
2023-04-23T09:27:42.012Z,991.1
2023-04-23T09:28:43.174Z,991.2
2023-04-23T09:29:44.399Z,991.1
2023-04-23T09:30:45.567Z,991.1
2023-04-23T09:31:46.833Z,991.2
2023-04-23T09:32:48.307Z,991.2
2023-04-23T09:33:49.687Z,991.1
2023-04-23T09:34:50.821Z,991.1
2023-04-23T09:35:51.987Z,991.1
2023-04-23T09:36:53.198Z,991.1
2023-04-23T09:37:54.403Z,991.1
2023-04-23T09:38:55.551Z,991.1
2023-04-23T09:39:56.728Z,991.2
2023-04-23T09:40:57.884Z,991.2
2023-04-23T09:41:59.050Z,991.1
2023-04-23T09:43:00.217Z,991.1
2023-04-23T09:44:01.389Z,991.1
2023-04-23T09:45:02.584Z,991.2
2023-04-23T09:46:03.790Z,991.2
2023-04-23T09:47:04.999Z,991.2
2023-04-23T09:48:06.250Z,991.2
2023-04-23T09:49:07.474Z,991.2
2023-04-23T09:50:08.702Z,991.2
2023-04-23T09:51:09.864Z,991.1
2023-04-23T09:52:11.030Z,991.1
2023-04-23T09:53:12.206Z,991.1
2023-04-23T09:54:13.392Z,991.1
2023-04-23T09:55:14.532Z,991.1
2023-04-23T09:56:15.694Z,991.1
2023-04-23T09:57:16.858Z,991.1
2023-04-23T09:58:18.034Z,991.1
2023-04-23T09:59:19.198Z,991
2023-04-23T10:00:21.706Z,991
2023-04-23T10:01:23.915Z,991
2023-04-23T10:02:25.386Z,991
2023-04-23T10:03:27.060Z,990.9
2023-04-23T10:04:28.844Z,990.9
2023-04-23T10:05:40.981Z,990.9
2023-04-23T10:07:20.030Z,990.9
2023-04-23T10:08:21.642Z,991
2023-04-23T10:09:22.805Z,990.9
2023-04-23T10:10:23.969Z,990.9
2023-04-23T10:11:25.143Z,990.9
2023-04-23T10:12:44.526Z,990.9
2023-04-23T10:13:55.817Z,990.9
2023-04-23T10:14:56.978Z,990.9
2023-04-23T10:16:21.118Z,990.9
2023-04-23T10:17:27.735Z,990.9
2023-04-23T10:18:28.890Z,991
2023-04-23T10:19:30.060Z,991
2023-04-23T10:20:31.246Z,991
2023-04-23T10:21:50.346Z,990.9
2023-04-23T10:23:03.153Z,990.9
2023-04-23T10:24:04.308Z,990.9
2023-04-23T10:25:05.472Z,990.8
2023-04-23T10:26:06.642Z,990.9
2023-04-23T10:27:17.675Z,990.8
2023-04-23T10:28:34.310Z,990.8
2023-04-23T10:29:35.479Z,990.8
2023-04-23T10:30:36.642Z,990.8
2023-04-23T10:31:37.957Z,990.8
2023-04-23T10:32:39.307Z,990.8
2023-04-23T10:33:58.173Z,990.8
2023-04-23T10:35:00.733Z,990.8
2023-04-23T10:36:01.931Z,990.8
2023-04-23T10:37:05.914Z,990.7
2023-04-23T10:38:07.148Z,990.7
2023-04-23T10:39:08.720Z,990.7
2023-04-23T10:40:10.677Z,990.7
2023-04-23T10:41:11.885Z,990.7
2023-04-23T10:42:13.051Z,990.7
2023-04-23T10:43:14.232Z,990.7
2023-04-23T10:44:16.958Z,990.7
2023-04-23T10:45:33.839Z,990.6
2023-04-23T10:46:39.441Z,990.6
2023-04-23T10:47:40.893Z,990.6
2023-04-23T10:48:44.220Z,990.5
2023-04-23T10:49:45.392Z,990.5
2023-04-23T10:51:19.192Z,990.6
2023-04-23T10:53:18.615Z,990.5
2023-04-23T10:54:19.759Z,990.4
2023-04-23T10:55:21.090Z,990.4
2023-04-23T10:56:22.254Z,990.4
2023-04-23T10:57:23.427Z,990.4
2023-04-23T10:58:24.594Z,990.4
2023-04-23T10:59:25.751Z,990.4
2023-04-23T11:00:26.915Z,990.5
2023-04-23T11:01:28.152Z,990.5
2023-04-23T11:02:29.837Z,990.5
2023-04-23T11:03:31.603Z,990.5
2023-04-23T11:04:33.890Z,990.4
2023-04-23T11:05:35.493Z,990.4
2023-04-23T11:06:36.661Z,990.4
2023-04-23T11:07:37.827Z,990.5
2023-04-23T11:08:39.018Z,990.4
2023-04-23T11:09:40.673Z,990.5
2023-04-23T11:10:42.714Z,990.5
2023-04-23T11:11:43.864Z,990.4
2023-04-23T11:12:45.037Z,990.4
2023-04-23T11:13:46.199Z,990.3
2023-04-23T11:14:47.363Z,990.5
2023-04-23T11:15:48.526Z,990.5
2023-04-23T11:16:49.747Z,990.5
2023-04-23T11:17:51.174Z,990.4
2023-04-23T11:18:52.341Z,990
2023-04-23T11:19:53.503Z,990
2023-04-23T11:20:54.664Z,990
2023-04-23T11:21:55.829Z,990.1
2023-04-23T11:22:56.998Z,990.1
2023-04-23T11:23:58.217Z,990.1
2023-04-23T11:24:59.358Z,990.1
2023-04-23T11:26:00.541Z,990.1
2023-04-23T11:27:01.801Z,990.1
2023-04-23T11:28:02.965Z,990.1
2023-04-23T11:29:04.134Z,990.1
2023-04-23T11:30:05.317Z,990
2023-04-23T11:31:06.460Z,990
2023-04-23T11:32:07.647Z,990
2023-04-23T11:33:08.840Z,990
2023-04-23T11:34:09.986Z,990
2023-04-23T11:35:14.086Z,990
2023-04-23T11:36:15.260Z,990
2023-04-23T11:37:16.433Z,990
2023-04-23T11:38:17.592Z,990
2023-04-23T11:39:18.783Z,990
2023-04-23T11:40:19.993Z,990
2023-04-23T11:41:21.236Z,990
2023-04-23T11:42:22.406Z,989.9
2023-04-23T11:43:23.578Z,990.2
2023-04-23T11:44:24.738Z,990.2
2023-04-23T11:45:25.908Z,990.2
2023-04-23T11:46:27.324Z,990.2
2023-04-23T11:47:28.683Z,990.2
2023-04-23T11:48:29.820Z,989.9
2023-04-23T11:49:30.983Z,989.9
2023-04-23T11:50:32.152Z,989.9
2023-04-23T11:51:33.313Z,989.9
2023-04-23T11:52:34.485Z,989.9
2023-04-23T11:53:35.645Z,989.9
2023-04-23T11:59:29.300Z,989.8
2023-04-23T12:00:32.717Z,989.8
2023-04-23T12:01:34.161Z,989.8
2023-04-23T12:02:35.567Z,989.8
2023-04-23T12:03:37.310Z,989.8
2023-04-23T12:04:41.571Z,989.8
2023-04-23T12:05:42.999Z,989.8
2023-04-23T12:06:44.157Z,989.8
2023-04-23T12:07:45.322Z,989.7
2023-04-23T12:08:46.487Z,989.8
2023-04-23T12:09:47.670Z,989.8
2023-04-23T12:10:48.836Z,989.8
2023-04-23T12:11:50.017Z,989.8
2023-04-23T12:12:51.177Z,989.8
2023-04-23T12:13:52.340Z,989.8
2023-04-23T12:14:53.535Z,989.8
2023-04-23T12:15:54.681Z,989.8
2023-04-23T12:16:55.843Z,989.8
2023-04-23T12:17:57.202Z,989.8
2023-04-23T12:18:58.393Z,989.8
2023-04-23T12:19:59.555Z,989.8
2023-04-23T12:21:00.723Z,989.8
2023-04-23T12:22:01.973Z,989.8
2023-04-23T12:23:03.148Z,989.8
2023-04-23T12:24:04.304Z,989.8
2023-04-23T12:25:05.470Z,989.8
2023-04-23T12:26:06.635Z,989.8
2023-04-23T12:27:07.796Z,989.8
2023-04-23T12:28:08.969Z,989.8
2023-04-23T12:29:12.552Z,989.7
2023-04-23T12:30:13.797Z,989.7
2023-04-23T12:31:15.022Z,989.7
2023-04-23T12:32:16.186Z,989.7
2023-04-23T12:33:17.349Z,989.7
2023-04-23T12:34:18.518Z,989.7
2023-04-23T12:35:19.685Z,989.7
2023-04-23T12:36:20.868Z,989.7
2023-04-23T12:37:25.094Z,989.7
2023-04-23T12:38:26.279Z,989.7
2023-04-23T12:39:27.462Z,989.7
2023-04-23T12:40:28.626Z,989.7
2023-04-23T12:41:33.431Z,989.6
2023-04-23T12:42:34.716Z,989.6
2023-04-23T12:43:35.874Z,989.6
2023-04-23T12:44:39.174Z,989.6
2023-04-23T12:45:40.561Z,989.6
2023-04-23T12:46:41.719Z,989.6
2023-04-23T12:47:43.015Z,989.6
2023-04-23T12:48:44.168Z,989.5
2023-04-23T12:49:45.858Z,989.5
2023-04-23T12:50:47.056Z,989.5
2023-04-23T12:51:48.222Z,989.5
2023-04-23T12:52:49.388Z,989.5
2023-04-23T12:53:50.553Z,989.5
2023-04-23T12:54:51.724Z,989.5
2023-04-23T12:55:53.174Z,989.5
2023-04-23T12:56:54.339Z,989.4
2023-04-23T12:57:55.503Z,989.5
2023-04-23T12:58:56.672Z,989.4
2023-04-23T12:59:57.841Z,989.4
2023-04-23T13:00:59.090Z,989.3
2023-04-23T13:02:00.357Z,989.3
2023-04-23T13:03:01.667Z,989.4
2023-04-23T13:04:03.968Z,989.4
2023-04-23T13:05:08.235Z,989.4
2023-04-23T13:06:09.434Z,989.4
2023-04-23T13:07:10.593Z,989.4
2023-04-23T13:08:11.772Z,989.3
2023-04-23T13:09:13.155Z,989.3
2023-04-23T13:10:14.378Z,989.3
2023-04-23T13:11:15.545Z,989.3
2023-04-23T13:12:16.783Z,989.3
2023-04-23T13:13:17.910Z,989.2
2023-04-23T13:14:19.229Z,989.2
2023-04-23T13:15:20.959Z,989.2
2023-04-23T13:16:22.234Z,989.2
2023-04-23T13:17:23.649Z,989.2
2023-04-23T13:18:24.805Z,989.2
2023-04-23T13:19:26.409Z,989.2
2023-04-23T13:20:27.601Z,989.1
2023-04-23T13:21:28.927Z,989.1
2023-04-23T13:22:30.124Z,989.1
2023-04-23T13:23:31.293Z,989